sensor_id;sensor_type;location;lat;lon;timestamp;pressure;altitude;pressure_sealevel;temperature;humidity
32131;BME280;18639;50.716;7.086;2022-12-07T00:01:06;100541.09;;;5.40;100.00
32131;BME280;18639;50.716;7.086;2022-12-07T00:03:32;100553.88;;;5.41;100.00
32131;BME280;18639;50.716;7.086;2022-12-07T00:05:58;100542.88;;;5.39;100.00
32131;BME280;18639;50.716;7.086;2022-12-07T00:08:23;100494.25;;;5.16;100.00
32131;BME280;18639;50.716;7.086;2022-12-07T00:10:48;100527.66;;;5.35;100.00
32131;BME280;18639;50.716;7.086;2022-12-07T00:13:14;100539.31;;;5.42;100.00
32131;BME280;18639;50.716;7.086;2022-12-07T00:15:39;100546.06;;;5.44;100.00
32131;BME280;18639;50.716;7.086;2022-12-07T00:18:04;100532.47;;;5.42;100.00
32131;BME280;18639;50.716;7.086;2022-12-07T00:20:30;100514.91;;;5.33;100.00
32131;BME280;18639;50.716;7.086;2022-12-07T00:22:57;100515.03;;;5.30;100.00
32131;BME280;18639;50.716;7.086;2022-12-07T00:25:22;100522.22;;;5.42;100.00
32131;BME280;18639;50.716;7.086;2022-12-07T00:27:47;100541.69;;;5.46;100.00
32131;BME280;18639;50.716;7.086;2022-12-07T00:30:13;100526.47;;;5.43;100.00
32131;BME280;18639;50.716;7.086;2022-12-07T00:32:38;100530.63;;;5.46;100.00
32131;BME280;18639;50.716;7.086;2022-12-07T00:35:04;100502.88;;;5.35;100.00
32131;BME280;18639;50.716;7.086;2022-12-07T00:37:29;100526.22;;;5.49;100.00
32131;BME280;18639;50.716;7.086;2022-12-07T00:39:54;100516.06;;;5.46;100.00
32131;BME280;18639;50.716;7.086;2022-12-07T00:42:20;100517.59;;;5.50;100.00
32131;BME280;18639;50.716;7.086;2022-12-07T00:44:45;100512.38;;;5.54;100.00
32131;BME280;18639;50.716;7.086;2022-12-07T00:47:10;100513.56;;;5.45;100.00
32131;BME280;18639;50.716;7.086;2022-12-07T00:49:36;100494.03;;;5.42;100.00
32131;BME280;18639;50.716;7.086;2022-12-07T00:52:01;100501.97;;;5.57;100.00
32131;BME280;18639;50.716;7.086;2022-12-07T00:54:26;100494.28;;;5.57;100.00
32131;BME280;18639;50.716;7.086;2022-12-07T00:56:51;100494.25;;;5.58;100.00
32131;BME280;18639;50.716;7.086;2022-12-07T00:59:17;100419.84;;;4.99;100.00
32131;BME280;18639;50.716;7.086;2022-12-07T01:01:42;100504.69;;;5.54;100.00
32131;BME280;18639;50.716;7.086;2022-12-07T01:04:07;100498.53;;;5.58;100.00
32131;BME280;18639;50.716;7.086;2022-12-07T01:06:33;100490.06;;;5.56;100.00
32131;BME280;18639;50.716;7.086;2022-12-07T01:08:59;100480.63;;;5.36;100.00
32131;BME280;18639;50.716;7.086;2022-12-07T01:11:27;100502.97;;;5.54;100.00
32131;BME280;18639;50.716;7.086;2022-12-07T01:13:54;100504.53;;;5.57;100.00
32131;BME280;18639;50.716;7.086;2022-12-07T01:16:22;100507.00;;;5.60;100.00
32131;BME280;18639;50.716;7.086;2022-12-07T01:18:50;100492.25;;;5.44;100.00
32131;BME280;18639;50.716;7.086;2022-12-07T01:21:35;100501.22;;;5.55;100.00
32131;BME280;18639;50.716;7.086;2022-12-07T01:24:03;100516.41;;;5.59;100.00
32131;BME280;18639;50.716;7.086;2022-12-07T01:26:29;100489.84;;;5.40;100.00
32131;BME280;18639;50.716;7.086;2022-12-07T01:28:54;100480.59;;;5.37;100.00
32131;BME280;18639;50.716;7.086;2022-12-07T01:31:22;100520.72;;;5.59;100.00
32131;BME280;18639;50.716;7.086;2022-12-07T01:33:51;100484.81;;;5.38;100.00
32131;BME280;18639;50.716;7.086;2022-12-07T01:38:49;100522.63;;;5.54;100.00
32131;BME280;18639;50.716;7.086;2022-12-07T01:41:17;100522.28;;;5.61;100.00
32131;BME280;18639;50.716;7.086;2022-12-07T01:44:18;100510.25;;;5.63;100.00
32131;BME280;18639;50.716;7.086;2022-12-07T01:47:02;100511.88;;;5.66;100.00
32131;BME280;18639;50.716;7.086;2022-12-07T01:49:34;100518.00;;;5.62;100.00
32131;BME280;18639;50.716;7.086;2022-12-07T01:54:35;100515.28;;;5.66;100.00
32131;BME280;18639;50.716;7.086;2022-12-07T01:57:00;100503.25;;;5.67;100.00
32131;BME280;18639;50.716;7.086;2022-12-07T01:59:26;100484.88;;;5.57;100.00
32131;BME280;18639;50.716;7.086;2022-12-07T02:01:54;100488.28;;;5.58;100.00
32131;BME280;18639;50.716;7.086;2022-12-07T02:04:22;100498.91;;;5.69;100.00
32131;BME280;18639;50.716;7.086;2022-12-07T02:06:48;100503.16;;;5.70;100.00
32131;BME280;18639;50.716;7.086;2022-12-07T02:09:13;100467.28;;;5.49;100.00
32131;BME280;18639;50.716;7.086;2022-12-07T02:11:39;100483.78;;;5.63;100.00
32131;BME280;18639;50.716;7.086;2022-12-07T02:14:05;100480.38;;;5.62;100.00
32131;BME280;18639;50.716;7.086;2022-12-07T02:16:46;100484.38;;;5.69;100.00
32131;BME280;18639;50.716;7.086;2022-12-07T02:28:19;100480.34;;;5.64;100.00
32131;BME280;18639;50.716;7.086;2022-12-07T02:30:54;100363.44;;;5.00;100.00
32131;BME280;18639;50.716;7.086;2022-12-07T02:33:27;100446.88;;;5.46;100.00
32131;BME280;18639;50.716;7.086;2022-12-07T02:36:05;100474.38;;;5.63;100.00
32131;BME280;18639;50.716;7.086;2022-12-07T02:41:31;100480.38;;;5.62;100.00
32131;BME280;18639;50.716;7.086;2022-12-07T02:44:02;100484.44;;;5.68;100.00
32131;BME280;18639;50.716;7.086;2022-12-07T02:46:32;100484.31;;;5.71;100.00
32131;BME280;18639;50.716;7.086;2022-12-07T02:48:59;100486.09;;;5.69;100.00
32131;BME280;18639;50.716;7.086;2022-12-07T02:51:25;100453.53;;;5.50;100.00
32131;BME280;18639;50.716;7.086;2022-12-07T02:53:50;100460.88;;;5.60;100.00
32131;BME280;18639;50.716;7.086;2022-12-07T02:58:54;100472.50;;;5.67;100.00
32131;BME280;18639;50.716;7.086;2022-12-07T03:02:13;100474.97;;;5.70;100.00
32131;BME280;18639;50.716;7.086;2022-12-07T03:07:10;100460.88;;;5.60;100.00
32131;BME280;18639;50.716;7.086;2022-12-07T03:09:46;100438.50;;;5.43;100.00
32131;BME280;18639;50.716;7.086;2022-12-07T03:12:29;100470.97;;;5.63;100.00
32131;BME280;18639;50.716;7.086;2022-12-07T03:15:05;100451.69;;;5.54;100.00
32131;BME280;18639;50.716;7.086;2022-12-07T03:17:38;100440.09;;;5.45;100.00
32131;BME280;18639;50.716;7.086;2022-12-07T03:20:08;100467.66;;;5.61;100.00
32131;BME280;18639;50.716;7.086;2022-12-07T03:22:35;100471.69;;;5.66;100.00
32131;BME280;18639;50.716;7.086;2022-12-07T03:25:08;100446.78;;;5.49;100.00
32131;BME280;18639;50.716;7.086;2022-12-07T03:27:47;100473.34;;;5.67;100.00
32131;BME280;18639;50.716;7.086;2022-12-07T03:30:19;100457.41;;;5.61;100.00
32131;BME280;18639;50.716;7.086;2022-12-07T03:33:15;100468.94;;;5.71;100.00
32131;BME280;18639;50.716;7.086;2022-12-07T03:35:45;100467.25;;;5.70;100.00
32131;BME280;18639;50.716;7.086;2022-12-07T03:38:18;100463.03;;;5.69;100.00
32131;BME280;18639;50.716;7.086;2022-12-07T03:41:29;100477.31;;;5.74;100.00
32131;BME280;18639;50.716;7.086;2022-12-07T03:43:34;100461.50;;;5.65;100.00
32131;BME280;18639;50.716;7.086;2022-12-07T03:51:32;100469.88;;;5.68;100.00
32131;BME280;18639;50.716;7.086;2022-12-07T03:54:20;100472.38;;;5.70;100.00
32131;BME280;18639;50.716;7.086;2022-12-07T03:56:48;100438.25;;;5.49;100.00
32131;BME280;18639;50.716;7.086;2022-12-07T03:59:16;100469.06;;;5.68;100.00
32131;BME280;18639;50.716;7.086;2022-12-07T04:01:45;100475.69;;;5.72;100.00
32131;BME280;18639;50.716;7.086;2022-12-07T04:04:16;100459.97;;;5.61;100.00
32131;BME280;18639;50.716;7.086;2022-12-07T04:06:41;100449.13;;;5.54;100.00
32131;BME280;18639;50.716;7.086;2022-12-07T04:09:06;100469.00;;;5.69;100.00
32131;BME280;18639;50.716;7.086;2022-12-07T04:11:31;100469.78;;;5.71;100.00
32131;BME280;18639;50.716;7.086;2022-12-07T04:13:57;100461.56;;;5.63;100.00
32131;BME280;18639;50.716;7.086;2022-12-07T04:16:40;100458.78;;;5.68;100.00
32131;BME280;18639;50.716;7.086;2022-12-07T04:19:06;100456.50;;;5.62;100.00
32131;BME280;18639;50.716;7.086;2022-12-07T04:21:31;100467.97;;;5.73;100.00
32131;BME280;18639;50.716;7.086;2022-12-07T04:23:56;100469.81;;;5.70;100.00
32131;BME280;18639;50.716;7.086;2022-12-07T04:26:22;100440.09;;;5.45;100.00
32131;BME280;18639;50.716;7.086;2022-12-07T04:28:47;100445.75;;;5.54;100.00
32131;BME280;18639;50.716;7.086;2022-12-07T04:31:12;100437.41;;;5.48;100.00
32131;BME280;18639;50.716;7.086;2022-12-07T04:33:37;100448.09;;;5.58;100.00
32131;BME280;18639;50.716;7.086;2022-12-07T04:36:03;100463.03;;;5.69;100.00
32131;BME280;18639;50.716;7.086;2022-12-07T04:38:28;100424.84;;;5.42;100.00
32131;BME280;18639;50.716;7.086;2022-12-07T04:40:54;100462.25;;;5.67;100.00
32131;BME280;18639;50.716;7.086;2022-12-07T04:43:19;100423.19;;;5.41;100.00
32131;BME280;18639;50.716;7.086;2022-12-07T04:45:48;100463.91;;;5.68;100.00
32131;BME280;18639;50.716;7.086;2022-12-07T04:48:14;100459.78;;;5.65;100.00
32131;BME280;18639;50.716;7.086;2022-12-07T04:50:39;100448.16;;;5.57;100.00
32131;BME280;18639;50.716;7.086;2022-12-07T04:53:05;100442.28;;;5.55;100.00
32131;BME280;18639;50.716;7.086;2022-12-07T04:55:30;100434.91;;;5.47;100.00
32131;BME280;18639;50.716;7.086;2022-12-07T04:57:55;100446.63;;;5.53;100.00
32131;BME280;18639;50.716;7.086;2022-12-07T05:00:20;100450.47;;;5.63;100.00
32131;BME280;18639;50.716;7.086;2022-12-07T05:02:46;100457.25;;;5.64;100.00
32131;BME280;18639;50.716;7.086;2022-12-07T05:05:11;100434.91;;;5.47;100.00
32131;BME280;18639;50.716;7.086;2022-12-07T05:07:36;100448.34;;;5.52;100.00
32131;BME280;18639;50.716;7.086;2022-12-07T05:10:02;100467.66;;;5.61;100.00
32131;BME280;18639;50.716;7.086;2022-12-07T05:12:27;100461.69;;;5.60;100.00
32131;BME280;18639;50.716;7.086;2022-12-07T05:14:53;100419.41;;;5.30;100.00
32131;BME280;18639;50.716;7.086;2022-12-07T05:17:18;100463.44;;;5.60;100.00
32131;BME280;18639;50.716;7.086;2022-12-07T05:19:43;100443.50;;;5.46;100.00
32131;BME280;18639;50.716;7.086;2022-12-07T05:22:08;100433.44;;;5.41;100.00
32131;BME280;18639;50.716;7.086;2022-12-07T05:24:34;100454.25;;;5.54;100.00
32131;BME280;18639;50.716;7.086;2022-12-07T05:27:00;100451.25;;;5.44;100.00
32131;BME280;18639;50.716;7.086;2022-12-07T05:29:25;100450.34;;;5.45;100.00
32131;BME280;18639;50.716;7.086;2022-12-07T05:31:50;100392.19;;;5.07;100.00
32131;BME280;18639;50.716;7.086;2022-12-07T05:34:16;100464.56;;;5.53;100.00
32131;BME280;18639;50.716;7.086;2022-12-07T05:36:41;100465.41;;;5.53;100.00
32131;BME280;18639;50.716;7.086;2022-12-07T05:39:07;100432.16;;;5.31;100.00
32131;BME280;18639;50.716;7.086;2022-12-07T05:41:32;100458.94;;;5.44;100.00
32131;BME280;18639;50.716;7.086;2022-12-07T05:44:16;100458.94;;;5.44;100.00
32131;BME280;18639;50.716;7.086;2022-12-07T05:46:42;100454.00;;;5.40;100.00
32131;BME280;18639;50.716;7.086;2022-12-07T05:49:07;100461.50;;;5.44;100.00
32131;BME280;18639;50.716;7.086;2022-12-07T05:51:32;100474.00;;;5.52;100.00
32131;BME280;18639;50.716;7.086;2022-12-07T05:53:57;100462.91;;;5.51;100.00
32131;BME280;18639;50.716;7.086;2022-12-07T05:56:23;100450.28;;;5.47;100.00
32131;BME280;18639;50.716;7.086;2022-12-07T05:58:48;100429.59;;;5.31;100.00
32131;BME280;18639;50.716;7.086;2022-12-07T06:01:32;100451.19;;;5.46;100.00
32131;BME280;18639;50.716;7.086;2022-12-07T06:03:57;100447.03;;;5.43;100.00
32131;BME280;18639;50.716;7.086;2022-12-07T06:06:23;100466.50;;;5.47;100.00
32131;BME280;18639;50.716;7.086;2022-12-07T06:08:48;100446.94;;;5.45;100.00
32131;BME280;18639;50.716;7.086;2022-12-07T06:11:13;100429.59;;;5.31;100.00
32131;BME280;18639;50.716;7.086;2022-12-07T06:13:57;100457.88;;;5.50;100.00
32131;BME280;18639;50.716;7.086;2022-12-07T06:16:22;100464.56;;;5.53;100.00
32131;BME280;18639;50.716;7.086;2022-12-07T06:18:47;100453.81;;;5.44;100.00
32131;BME280;18639;50.716;7.086;2022-12-07T06:21:13;100451.38;;;5.41;100.00
32131;BME280;18639;50.716;7.086;2022-12-07T06:23:39;100459.59;;;5.49;100.00
32131;BME280;18639;50.716;7.086;2022-12-07T06:26:04;100476.50;;;5.54;100.00
32131;BME280;18639;50.716;7.086;2022-12-07T06:28:29;100441.38;;;5.35;100.00
32131;BME280;18639;50.716;7.086;2022-12-07T06:30:59;100481.47;;;5.57;100.00
32131;BME280;18639;50.716;7.086;2022-12-07T06:33:25;100463.44;;;5.39;100.00
32131;BME280;18639;50.716;7.086;2022-12-07T06:35:50;100490.34;;;5.49;100.00
32131;BME280;18639;50.716;7.086;2022-12-07T06:38:16;100474.03;;;5.50;100.00
32131;BME280;18639;50.716;7.086;2022-12-07T06:40:41;100452.41;;;5.37;100.00
32131;BME280;18639;50.716;7.086;2022-12-07T06:43:06;100487.59;;;5.54;100.00
32131;BME280;18639;50.716;7.086;2022-12-07T06:45:33;100479.13;;;5.52;100.00
32131;BME280;18639;50.716;7.086;2022-12-07T06:47:58;100462.72;;;5.36;100.00
32131;BME280;18639;50.716;7.086;2022-12-07T06:50:23;100478.66;;;5.42;100.00
32131;BME280;18639;50.716;7.086;2022-12-07T06:52:50;100477.38;;;5.32;100.00
32131;BME280;18639;50.716;7.086;2022-12-07T06:55:15;100474.28;;;5.24;100.00
32131;BME280;18639;50.716;7.086;2022-12-07T06:57:41;100487.81;;;5.28;100.00
32131;BME280;18639;50.716;7.086;2022-12-07T07:00:06;100479.41;;;5.24;100.00
32131;BME280;18639;50.716;7.086;2022-12-07T07:02:32;100456.72;;;5.15;100.00
32131;BME280;18639;50.716;7.086;2022-12-07T07:04:57;100478.56;;;5.24;100.00
32131;BME280;18639;50.716;7.086;2022-12-07T07:07:22;100478.56;;;5.24;100.00
32131;BME280;18639;50.716;7.086;2022-12-07T07:09:48;100458.34;;;5.18;100.00
32131;BME280;18639;50.716;7.086;2022-12-07T07:12:13;100480.97;;;5.28;100.00
32131;BME280;18639;50.716;7.086;2022-12-07T07:14:38;100422.41;;;4.99;100.00
32131;BME280;18639;50.716;7.086;2022-12-07T07:17:03;100479.06;;;5.33;100.00
32131;BME280;18639;50.716;7.086;2022-12-07T07:19:29;100483.44;;;5.30;100.00
32131;BME280;18639;50.716;7.086;2022-12-07T07:21:54;100457.63;;;5.14;100.00
32131;BME280;18639;50.716;7.086;2022-12-07T07:24:19;100468.75;;;5.13;100.00
32131;BME280;18639;50.716;7.086;2022-12-07T07:26:44;100486.19;;;5.25;100.00
32131;BME280;18639;50.716;7.086;2022-12-07T07:29:10;100485.31;;;5.26;100.00
32131;BME280;18639;50.716;7.086;2022-12-07T07:31:35;100488.91;;;5.22;100.00
32131;BME280;18639;50.716;7.086;2022-12-07T07:34:02;100487.22;;;5.21;100.00
32131;BME280;18639;50.716;7.086;2022-12-07T07:36:27;100488.66;;;5.28;100.00
32131;BME280;18639;50.716;7.086;2022-12-07T07:38:52;100487.88;;;5.26;100.00
32131;BME280;18639;50.716;7.086;2022-12-07T07:41:17;100483.59;;;5.27;100.00
32131;BME280;18639;50.716;7.086;2022-12-07T07:43:43;100497.88;;;5.32;100.00
32131;BME280;18639;50.716;7.086;2022-12-07T07:46:08;100499.56;;;5.33;100.00
32131;BME280;18639;50.716;7.086;2022-12-07T07:48:33;100487.63;;;5.32;100.00
32131;BME280;18639;50.716;7.086;2022-12-07T07:50:58;100477.31;;;5.34;100.00
32131;BME280;18639;50.716;7.086;2022-12-07T07:53:24;100490.44;;;5.46;100.00
32131;BME280;18639;50.716;7.086;2022-12-07T07:55:51;100486.41;;;5.41;100.00
32131;BME280;18639;50.716;7.086;2022-12-07T07:58:17;100508.78;;;5.58;100.00
32131;BME280;18639;50.716;7.086;2022-12-07T08:00:42;100512.19;;;5.58;100.00
32131;BME280;18639;50.716;7.086;2022-12-07T08:03:08;100504.69;;;5.54;100.00
32131;BME280;18639;50.716;7.086;2022-12-07T08:05:33;100507.31;;;5.52;100.00
32131;BME280;18639;50.716;7.086;2022-12-07T08:07:58;100515.69;;;5.56;100.00
32131;BME280;18639;50.716;7.086;2022-12-07T08:10:24;100514.75;;;5.58;100.00
32131;BME280;18639;50.716;7.086;2022-12-07T08:12:49;100497.94;;;5.51;100.00
32131;BME280;18639;50.716;7.086;2022-12-07T08:15:39;100511.97;;;5.63;100.00
32131;BME280;18639;50.716;7.086;2022-12-07T08:18:05;100499.38;;;5.58;100.00
32131;BME280;18639;50.716;7.086;2022-12-07T08:20:32;100476.88;;;5.44;100.00
32131;BME280;18639;50.716;7.086;2022-12-07T08:22:58;100478.91;;;5.36;100.00
32131;BME280;18639;50.716;7.086;2022-12-07T08:25:23;100495.81;;;5.40;100.00
32131;BME280;18639;50.716;7.086;2022-12-07T08:27:49;100501.59;;;5.45;100.00
32131;BME280;18639;50.716;7.086;2022-12-07T08:30:15;100499.94;;;5.44;100.00
32131;BME280;18639;50.716;7.086;2022-12-07T08:32:40;100494.09;;;5.41;100.00
32131;BME280;18639;50.716;7.086;2022-12-07T08:35:06;100512.97;;;5.60;100.00
32131;BME280;18639;50.716;7.086;2022-12-07T08:37:32;100494.25;;;5.58;100.00
32131;BME280;18639;50.716;7.086;2022-12-07T08:39:58;100494.69;;;5.68;100.00
32131;BME280;18639;50.716;7.086;2022-12-07T08:42:23;100495.47;;;5.70;100.00
32131;BME280;18639;50.716;7.086;2022-12-07T08:44:52;100483.34;;;5.73;100.00
32131;BME280;18639;50.716;7.086;2022-12-07T08:47:18;100498.22;;;5.85;100.00
32131;BME280;18639;50.716;7.086;2022-12-07T08:49:46;100493.69;;;5.92;100.00
32131;BME280;18639;50.716;7.086;2022-12-07T08:52:13;100501.03;;;6.00;100.00
32131;BME280;18639;50.716;7.086;2022-12-07T08:54:39;100504.94;;;6.08;100.00
32131;BME280;18639;50.716;7.086;2022-12-07T08:57:06;100489.69;;;6.05;100.00
32131;BME280;18639;50.716;7.086;2022-12-07T08:59:33;100485.00;;;5.95;100.00
32131;BME280;18639;50.716;7.086;2022-12-07T09:01:59;100487.16;;;6.04;100.00
32131;BME280;18639;50.716;7.086;2022-12-07T09:04:24;100506.75;;;6.06;100.00
32131;BME280;18639;50.716;7.086;2022-12-07T09:06:50;100498.41;;;6.01;100.00
32131;BME280;18639;50.716;7.086;2022-12-07T09:09:15;100482.00;;;5.85;100.00
32131;BME280;18639;50.716;7.086;2022-12-07T09:11:41;100463.81;;;5.71;100.00
32131;BME280;18639;50.716;7.086;2022-12-07T09:14:06;100512.38;;;5.94;100.00
32131;BME280;18639;50.716;7.086;2022-12-07T09:16:31;100498.81;;;5.92;100.00
32131;BME280;18639;50.716;7.086;2022-12-07T09:18:57;100504.63;;;5.96;100.00
32131;BME280;18639;50.716;7.086;2022-12-07T09:21:22;100496.88;;;5.97;100.00
32131;BME280;18639;50.716;7.086;2022-12-07T09:23:47;100487.00;;;5.88;100.00
32131;BME280;18639;50.716;7.086;2022-12-07T09:26:13;100483.03;;;6.01;100.00
32131;BME280;18639;50.716;7.086;2022-12-07T09:28:38;100500.25;;;6.18;100.00
32131;BME280;18639;50.716;7.086;2022-12-07T09:31:05;100505.94;;;6.24;100.00
32131;BME280;18639;50.716;7.086;2022-12-07T09:33:31;100501.50;;;6.28;100.00
32131;BME280;18639;50.716;7.086;2022-12-07T09:35:56;100507.47;;;6.28;100.00
32131;BME280;18639;50.716;7.086;2022-12-07T09:38:21;100503.75;;;6.36;100.00
32131;BME280;18639;50.716;7.086;2022-12-07T09:40:47;100485.28;;;6.27;100.00
32131;BME280;18639;50.716;7.086;2022-12-07T09:43:23;100504.06;;;6.47;100.00
32131;BME280;18639;50.716;7.086;2022-12-07T09:45:51;100493.06;;;6.45;100.00
32131;BME280;18639;50.716;7.086;2022-12-07T09:48:21;100499.97;;;6.43;100.00
32131;BME280;18639;50.716;7.086;2022-12-07T09:50:48;100498.03;;;6.48;100.00
32131;BME280;18639;50.716;7.086;2022-12-07T09:53:23;100502.06;;;6.53;100.00
32131;BME280;18639;50.716;7.086;2022-12-07T09:55:50;100497.34;;;6.63;100.00
32131;BME280;18639;50.716;7.086;2022-12-07T09:58:25;100488.06;;;6.60;100.00
32131;BME280;18639;50.716;7.086;2022-12-07T10:00:57;100485.44;;;6.62;100.00
32131;BME280;18639;50.716;7.086;2022-12-07T10:03:26;100495.25;;;6.71;100.00
32131;BME280;18639;50.716;7.086;2022-12-07T10:05:52;100467.84;;;6.53;100.00
32131;BME280;18639;50.716;7.086;2022-12-07T10:08:18;100475.44;;;6.56;100.00
32131;BME280;18639;50.716;7.086;2022-12-07T10:10:45;100425.31;;;6.30;100.00
32131;BME280;18639;50.716;7.086;2022-12-07T10:13:12;100481.94;;;6.63;100.00
32131;BME280;18639;50.716;7.086;2022-12-07T10:18:40;100479.97;;;6.68;100.00
32131;BME280;18639;50.716;7.086;2022-12-07T10:21:16;100473.72;;;6.73;100.00
32131;BME280;18639;50.716;7.086;2022-12-07T10:23:59;100472.31;;;6.85;100.00
32131;BME280;18639;50.716;7.086;2022-12-07T10:28:59;100476.84;;;6.99;100.00
32131;BME280;18639;50.716;7.086;2022-12-07T10:31:26;100458.00;;;6.98;100.00
32131;BME280;18639;50.716;7.086;2022-12-07T10:33:55;100459.53;;;7.02;100.00
32131;BME280;18639;50.716;7.086;2022-12-07T10:36:37;100463.06;;;7.00;100.00
32131;BME280;18639;50.716;7.086;2022-12-07T10:39:12;100464.38;;;7.08;100.00
32131;BME280;18639;50.716;7.086;2022-12-07T10:44:27;100451.06;;;7.17;100.00
32131;BME280;18639;50.716;7.086;2022-12-07T11:03:30;100440.97;;;7.32;100.00
32131;BME280;18639;50.716;7.086;2022-12-07T11:09:00;100432.47;;;7.30;100.00
32131;BME280;18639;50.716;7.086;2022-12-07T11:11:33;100428.31;;;7.27;100.00
32131;BME280;18639;50.716;7.086;2022-12-07T11:14:32;100427.56;;;7.25;100.00
32131;BME280;18639;50.716;7.086;2022-12-07T11:17:32;100420.94;;;7.21;100.00
32131;BME280;18639;50.716;7.086;2022-12-07T11:23:07;100410.00;;;7.33;100.00
32131;BME280;18639;50.716;7.086;2022-12-07T11:25:44;100409.34;;;7.30;100.00
32131;BME280;18639;50.716;7.086;2022-12-07T11:31:12;100407.91;;;7.24;100.00
32131;BME280;18639;50.716;7.086;2022-12-07T11:33:53;100389.56;;;7.14;100.00
32131;BME280;18639;50.716;7.086;2022-12-07T11:36:45;100394.59;;;7.16;100.00
32131;BME280;18639;50.716;7.086;2022-12-07T11:39:34;100399.97;;;7.11;100.00
32131;BME280;18639;50.716;7.086;2022-12-07T11:42:06;100392.38;;;7.10;100.00
32131;BME280;18639;50.716;7.086;2022-12-07T11:44:48;100393.56;;;7.20;100.00
32131;BME280;18639;50.716;7.086;2022-12-07T11:50:16;100384.66;;;7.43;100.00
32131;BME280;18639;50.716;7.086;2022-12-07T11:52:53;100373.97;;;7.68;100.00
32131;BME280;18639;50.716;7.086;2022-12-07T12:00:49;100371.09;;;7.89;100.00
32131;BME280;18639;50.716;7.086;2022-12-07T12:03:22;100370.94;;;7.92;100.00
32131;BME280;18639;50.716;7.086;2022-12-07T12:05:55;100352.91;;;7.92;100.00
32131;BME280;18639;50.716;7.086;2022-12-07T12:08:28;100369.75;;;7.82;100.00
32131;BME280;18639;50.716;7.086;2022-12-07T12:22:38;100360.09;;;7.70;100.00
32131;BME280;18639;50.716;7.086;2022-12-07T12:25:07;100358.09;;;7.59;100.00
32131;BME280;18639;50.716;7.086;2022-12-07T12:27:38;100353.41;;;7.35;100.00
32131;BME280;18639;50.716;7.086;2022-12-07T12:30:07;100336.78;;;7.25;100.00
32131;BME280;18639;50.716;7.086;2022-12-07T12:32:49;100342.31;;;7.17;100.00
32131;BME280;18639;50.716;7.086;2022-12-07T12:35:40;100361.59;;;7.08;100.00
32131;BME280;18639;50.716;7.086;2022-12-07T12:38:26;100354.34;;;6.99;100.00
32131;BME280;18639;50.716;7.086;2022-12-07T12:40:53;100343.31;;;6.80;100.00
32131;BME280;18639;50.716;7.086;2022-12-07T12:43:42;100351.25;;;6.93;100.00
32131;BME280;18639;50.716;7.086;2022-12-07T12:51:55;100350.19;;;6.80;100.00
32131;BME280;18639;50.716;7.086;2022-12-07T12:54:29;100350.41;;;6.75;100.00
32131;BME280;18639;50.716;7.086;2022-12-07T12:57:05;100348.13;;;6.69;100.00
32131;BME280;18639;50.716;7.086;2022-12-07T12:59:33;100347.00;;;6.74;100.00
32131;BME280;18639;50.716;7.086;2022-12-07T13:20:51;100345.28;;;6.92;100.00
32131;BME280;18639;50.716;7.086;2022-12-07T13:23:22;100347.97;;;6.89;100.00
32131;BME280;18639;50.716;7.086;2022-12-07T13:26:00;100338.94;;;6.82;100.00
32131;BME280;18639;50.716;7.086;2022-12-07T13:28:35;100323.91;;;6.74;100.00
32131;BME280;18639;50.716;7.086;2022-12-07T13:31:13;100333.03;;;6.80;100.00
32131;BME280;18639;50.716;7.086;2022-12-07T13:33:39;100317.31;;;6.69;100.00
32131;BME280;18639;50.716;7.086;2022-12-07T13:36:08;100322.16;;;6.75;100.00
32131;BME280;18639;50.716;7.086;2022-12-07T13:38:38;100320.38;;;6.77;100.00
32131;BME280;18639;50.716;7.086;2022-12-07T13:41:16;100330.16;;;6.86;100.00
32131;BME280;18639;50.716;7.086;2022-12-07T13:43:49;100332.50;;;6.91;100.00
32131;BME280;18639;50.716;7.086;2022-12-07T13:46:17;100299.66;;;6.80;100.00
32131;BME280;18639;50.716;7.086;2022-12-07T13:48:46;100317.16;;;6.89;100.00
32131;BME280;18639;50.716;7.086;2022-12-07T13:51:21;100311.34;;;6.86;100.00
32131;BME280;18639;50.716;7.086;2022-12-07T13:54:10;100319.59;;;6.92;100.00
32131;BME280;18639;50.716;7.086;2022-12-07T13:56:35;100313.56;;;6.93;100.00
32131;BME280;18639;50.716;7.086;2022-12-07T13:59:01;100310.22;;;6.91;100.00
32131;BME280;18639;50.716;7.086;2022-12-07T14:01:27;100311.59;;;6.81;100.00
32131;BME280;18639;50.716;7.086;2022-12-07T14:03:53;100312.50;;;6.80;100.00
32131;BME280;18639;50.716;7.086;2022-12-07T14:06:27;100316.06;;;6.78;100.00
32131;BME280;18639;50.716;7.086;2022-12-07T14:09:23;100311.28;;;6.70;100.00
32131;BME280;18639;50.716;7.086;2022-12-07T14:11:50;100306.75;;;6.58;100.00
32131;BME280;18639;50.716;7.086;2022-12-07T14:14:30;100307.97;;;6.51;100.00
32131;BME280;18639;50.716;7.086;2022-12-07T14:16:59;100304.19;;;6.41;100.00
32131;BME280;18639;50.716;7.086;2022-12-07T14:22:19;100316.41;;;6.36;100.00
32131;BME280;18639;50.716;7.086;2022-12-07T14:24:45;100303.59;;;6.17;100.00
32131;BME280;18639;50.716;7.086;2022-12-07T14:27:20;100299.59;;;6.11;100.00
32131;BME280;18639;50.716;7.086;2022-12-07T14:29:46;100300.28;;;6.15;100.00
32131;BME280;18639;50.716;7.086;2022-12-07T14:32:25;100298.69;;;6.12;100.00
32131;BME280;18639;50.716;7.086;2022-12-07T14:34:55;100290.38;;;6.07;100.00
32131;BME280;18639;50.716;7.086;2022-12-07T14:37:21;100292.13;;;6.07;100.00
32131;BME280;18639;50.716;7.086;2022-12-07T14:39:46;100294.47;;;6.11;100.00
32131;BME280;18639;50.716;7.086;2022-12-07T14:42:12;100268.63;;;5.97;100.00
32131;BME280;18639;50.716;7.086;2022-12-07T14:44:37;100268.47;;;6.00;100.00
32131;BME280;18639;50.716;7.086;2022-12-07T14:47:02;100286.81;;;6.10;100.00
32131;BME280;18639;50.716;7.086;2022-12-07T14:49:27;100277.63;;;6.06;100.00